createdAt,value
2023-03-23T15:59:50.648Z,22.11
2023-03-23T16:03:01.418Z,21.69
2023-03-23T16:06:04.119Z,21.33
2023-03-23T16:09:19.383Z,21.15
2023-03-23T16:12:21.953Z,21.05
2023-03-23T16:15:24.516Z,20.90
2023-03-23T16:18:27.494Z,20.65
2023-03-23T16:21:30.211Z,20.58
2023-03-23T16:24:33.146Z,20.51
2023-03-23T16:27:36.472Z,20.33
2023-03-23T16:30:40.052Z,20.15
2023-03-23T16:33:42.826Z,20.09
2023-03-23T16:36:45.766Z,19.91
2023-03-23T16:39:48.444Z,19.77
2023-03-23T16:42:51.311Z,19.67
2023-03-23T16:45:57.446Z,19.53
2023-03-23T16:49:01.427Z,19.37
2023-03-23T16:52:03.999Z,19.41
2023-03-23T16:55:07.153Z,19.37
2023-03-23T16:58:17.081Z,19.23
2023-03-23T17:01:20.781Z,19.11
2023-03-23T17:04:23.611Z,19.09
2023-03-23T17:07:26.261Z,18.98
2023-03-23T17:10:29.756Z,18.84
2023-03-23T17:13:32.653Z,18.72
2023-03-23T17:16:35.321Z,18.57
2023-03-23T17:19:38.116Z,18.45
2023-03-23T17:22:41.130Z,18.30
2023-03-23T17:25:50.535Z,18.31
2023-03-23T17:28:53.305Z,18.15
2023-03-23T17:31:56.166Z,18.06
2023-03-23T17:35:00.353Z,18.11
2023-03-23T17:38:04.370Z,18.03
2023-03-23T17:41:32.260Z,18.02
2023-03-23T17:44:35.126Z,18.04
2023-03-23T17:47:38.658Z,18.05
2023-03-23T17:50:41.650Z,17.97
2023-03-23T17:53:45.915Z,17.91
2023-03-23T17:56:50.208Z,17.81
2023-03-23T17:59:53.871Z,17.73
2023-03-23T18:02:57.124Z,17.63
2023-03-23T18:06:03.272Z,17.62
2023-03-23T18:09:06.461Z,17.62
2023-03-23T18:12:09.976Z,17.52
2023-03-23T18:15:13.320Z,17.46
2023-03-23T18:18:16.604Z,17.40
2023-03-23T18:21:20.111Z,17.28
2023-03-23T18:24:24.180Z,17.28
2023-03-23T18:27:29.304Z,17.22
2023-03-23T18:30:34.032Z,17.13
2023-03-23T18:33:38.670Z,17.04
2023-03-23T18:36:42.296Z,16.94
2023-03-23T18:39:47.231Z,16.88
2023-03-23T18:42:51.266Z,16.81
2023-03-23T18:45:57.238Z,16.71
2023-03-23T18:49:01.112Z,16.65
2023-03-23T18:52:05.185Z,16.58
2023-03-23T18:55:10.335Z,16.53
2023-03-23T18:58:15.552Z,16.47
2023-03-23T19:01:19.777Z,16.44
2023-03-23T19:04:27.212Z,16.44
2023-03-23T19:07:32.215Z,16.48
2023-03-23T19:10:42.794Z,16.45
2023-03-23T19:13:57.953Z,16.44
2023-03-23T19:17:02.110Z,16.44
2023-03-23T19:20:14.634Z,16.41
2023-03-23T19:23:23.961Z,16.37
2023-03-23T19:26:33.915Z,16.34
2023-03-23T19:29:40.065Z,16.34
2023-03-23T19:32:43.632Z,16.23
2023-03-23T19:36:05.874Z,16.13
2023-03-23T19:39:16.473Z,15.96
2023-03-23T19:42:22.650Z,15.93
2023-03-23T19:45:26.864Z,15.78
2023-03-23T19:48:31.760Z,15.53
2023-03-23T19:51:36.427Z,15.43
2023-03-23T19:54:41.035Z,15.29
2023-03-23T19:57:45.198Z,15.23
2023-03-23T20:00:49.181Z,15.15
2023-03-23T20:03:52.670Z,15.10
2023-03-23T20:07:00.033Z,15.00
2023-03-23T20:10:06.193Z,14.95
2023-03-23T20:13:12.422Z,14.97
2023-03-23T20:16:37.390Z,15.02
2023-03-23T20:19:42.225Z,15.01
2023-03-23T20:22:46.312Z,15.11
2023-03-23T20:25:50.359Z,15.13
2023-03-23T20:28:53.864Z,15.15
2023-03-23T20:32:07.452Z,15.21
2023-03-23T20:35:11.679Z,15.15
2023-03-23T20:38:16.850Z,15.16
2023-03-23T20:41:21.257Z,15.10
2023-03-23T20:44:28.280Z,15.11
2023-03-23T20:47:33.761Z,15.09
2023-03-23T20:50:37.789Z,15.06
2023-03-23T20:53:41.615Z,15.00
2023-03-23T20:56:46.268Z,15.11
2023-03-23T20:59:51.518Z,15.18
2023-03-23T21:02:56.110Z,15.09
2023-03-23T21:05:59.360Z,14.88
2023-03-23T21:09:03.706Z,14.82
2023-03-23T21:12:10.078Z,14.74
2023-03-23T21:15:13.686Z,14.75
2023-03-23T21:18:17.083Z,14.80
2023-03-23T21:21:20.196Z,14.75
2023-03-23T21:24:28.591Z,14.76
2023-03-23T21:27:31.422Z,14.75
2023-03-23T21:30:34.099Z,14.77
2023-03-23T21:33:37.298Z,14.76
2023-03-23T21:36:40.306Z,14.69
2023-03-23T21:39:43.064Z,14.69
2023-03-23T21:42:48.961Z,14.54
2023-03-23T21:45:55.988Z,14.52
2023-03-23T21:48:59.165Z,14.53
2023-03-23T21:52:02.801Z,14.53
2023-03-23T21:55:06.258Z,14.83
2023-03-23T21:58:09.789Z,14.76
2023-03-23T22:01:13.117Z,14.70
2023-03-23T22:04:17.147Z,14.61
2023-03-23T22:07:23.167Z,14.63
2023-03-23T22:10:26.038Z,14.54
2023-03-23T22:13:31.554Z,14.48
2023-03-23T22:16:34.874Z,14.34
2023-03-23T22:19:37.614Z,14.19
2023-03-23T22:22:40.559Z,14.07
2023-03-23T22:25:43.477Z,14.08
2023-03-23T22:28:47.652Z,14.01
2023-03-23T22:31:50.939Z,14.24
2023-03-23T22:34:53.676Z,14.24
2023-03-23T22:37:56.287Z,14.26
2023-03-23T22:41:02.418Z,14.20
2023-03-23T22:44:07.886Z,14.14
2023-03-23T22:47:10.385Z,14.07
2023-03-23T22:50:12.963Z,14.10
2023-03-23T22:53:18.121Z,14.13
2023-03-23T22:56:21.499Z,14.15
2023-03-23T22:59:24.157Z,14.20
2023-03-23T23:02:26.991Z,14.18
2023-03-23T23:05:29.619Z,14.25
2023-03-23T23:08:32.976Z,14.22
2023-03-23T23:11:35.587Z,14.14
2023-03-23T23:14:43.283Z,14.14
2023-03-23T23:17:46.176Z,14.07
2023-03-23T23:20:54.848Z,14.05
2023-03-23T23:23:58.093Z,13.94
2023-03-23T23:27:00.916Z,13.89
2023-03-23T23:30:06.674Z,13.85
2023-03-23T23:33:09.551Z,13.86
2023-03-23T23:36:12.346Z,13.76
2023-03-23T23:39:15.480Z,13.65
2023-03-23T23:42:18.067Z,13.60
2023-03-23T23:45:23.029Z,13.55
2023-03-23T23:48:25.697Z,13.46
2023-03-23T23:51:29.478Z,13.50
2023-03-23T23:54:32.146Z,13.55
2023-03-23T23:57:35.145Z,13.47
